Time;durP1;ratioP1;P1;durP2;ratioP2;P2;SDS_P1;SDS_P2;PMS_P1;PMS_P2;Temp;Humidity;BMP_temperature;BMP_pressure;BME280_temperature;BME280_humidity;BME280_pressure;Samples;Min_cycle;Max_cycle;Signal;HPM_P1;HPM_P2
2023/08/20 00:01:15;;;;;;;14.55;13.15;;;25.80;56.40;;;;;;5003665;28;114303;-78
2023/08/20 00:03:43;;;;;;;16.70;15.13;;;25.80;56.40;;;;;;4986429;28;113997;-79
2023/08/20 00:06:11;;;;;;;17.75;15.95;;;25.90;56.60;;;;;;4985040;28;116111;-79
2023/08/20 00:08:38;;;;;;;14.15;12.77;;;25.80;56.70;;;;;;5002896;28;114623;-78
2023/08/20 00:11:05;;;;;;;14.98;13.57;;;25.80;56.50;;;;;;5001365;28;114195;-78
2023/08/20 00:13:32;;;;;;;17.40;15.57;;;25.90;56.50;;;;;;5003315;28;114264;-78
2023/08/20 00:15:59;;;;;;;14.07;12.68;;;25.80;56.60;;;;;;4985046;28;114867;-78
2023/08/20 00:18:27;;;;;;;14.80;13.40;;;25.80;56.50;;;;;;4985070;28;114759;-79
2023/08/20 00:20:54;;;;;;;14.18;12.77;;;25.80;56.50;;;;;;5002102;28;114351;-79
2023/08/20 00:23:22;;;;;;;17.65;15.40;;;25.80;56.50;;;;;;5002412;28;114296;-79
2023/08/20 00:25:49;;;;;;;16.15;14.55;;;25.80;56.70;;;;;;5002399;28;114991;-79
2023/08/20 00:28:16;;;;;;;16.02;14.43;;;25.80;56.70;;;;;;5003043;28;114676;-78
2023/08/20 00:30:43;;;;;;;18.30;16.52;;;25.80;56.70;;;;;;5003309;28;114299;-79
2023/08/20 00:33:10;;;;;;;17.20;15.48;;;25.80;56.80;;;;;;4985549;28;114286;-78
2023/08/20 00:35:37;;;;;;;17.50;15.75;;;25.80;56.80;;;;;;5000806;28;116284;-78
2023/08/20 00:38:05;;;;;;;18.70;16.38;;;25.80;57.00;;;;;;5000979;28;114795;-79
2023/08/20 00:40:32;;;;;;;18.15;16.38;;;25.70;56.90;;;;;;4984960;28;114266;-78
2023/08/20 00:42:59;;;;;;;20.42;18.55;;;25.80;56.90;;;;;;4988777;28;114578;-78
2023/08/20 00:45:27;;;;;;;17.92;16.13;;;25.70;57.00;;;;;;4971186;28;117403;-79
2023/08/20 00:47:54;;;;;;;19.77;17.48;;;25.70;57.00;;;;;;4955452;28;118068;-79
2023/08/20 00:50:21;;;;;;;19.27;17.38;;;25.60;57.30;;;;;;5005316;28;114234;-78
2023/08/20 00:52:48;;;;;;;15.35;13.85;;;25.30;57.50;;;;;;4989312;28;114277;-79
2023/08/20 00:55:15;;;;;;;16.75;15.25;;;25.30;57.70;;;;;;5004400;28;114216;-78
2023/08/20 00:57:42;;;;;;;15.27;13.85;;;25.30;57.90;;;;;;4987986;28;114629;-79
2023/08/20 01:00:10;;;;;;;18.02;16.48;;;25.30;57.80;;;;;;5005148;28;114228;-79
2023/08/20 01:02:38;;;;;;;15.68;14.07;;;25.30;57.90;;;;;;5006762;28;114407;-78
2023/08/20 01:05:07;;;;;;;16.92;15.23;;;25.30;57.80;;;;;;5004980;28;115250;-79
2023/08/20 01:08:09;;;;;;;16.63;14.98;;;25.30;57.90;;;;;;5004416;28;114662;-79
2023/08/20 01:10:45;;;;;;;16.98;14.75;;;25.30;57.40;;;;;;4983700;28;114242;-79
2023/08/20 01:13:12;;;;;;;17.20;15.50;;;25.30;57.70;;;;;;5005692;28;114083;-78
2023/08/20 01:15:39;;;;;;;16.27;14.70;;;25.30;57.80;;;;;;4987840;28;114817;-79
2023/08/20 01:18:06;;;;;;;15.70;14.27;;;25.30;57.70;;;;;;5004855;28;114792;-79
2023/08/20 01:20:38;;;;;;;14.88;13.38;;;25.30;57.70;;;;;;5006167;28;114361;-79
2023/08/20 01:23:17;;;;;;;16.63;15.02;;;25.40;57.60;;;;;;5006496;28;114357;-79
2023/08/20 01:26:02;;;;;;;14.90;13.45;;;25.40;57.60;;;;;;5005046;28;114896;-79
2023/08/20 01:28:30;;;;;;;17.27;15.52;;;25.40;57.40;;;;;;5005836;28;115499;-79
2023/08/20 01:30:59;;;;;;;18.23;16.35;;;25.40;57.50;;;;;;5004748;28;114056;-79
2023/08/20 01:33:26;;;;;;;18.13;16.42;;;25.40;57.50;;;;;;4972800;28;114154;-78
2023/08/20 01:35:53;;;;;;;15.75;14.15;;;25.40;57.40;;;;;;5004819;28;115018;-79
2023/08/20 01:38:21;;;;;;;16.45;14.85;;;25.40;57.40;;;;;;4987598;28;114611;-79
2023/08/20 01:40:48;;;;;;;19.55;16.60;;;25.40;57.40;;;;;;5004487;28;114550;-79
2023/08/20 01:43:15;;;;;;;16.80;14.82;;;25.40;57.40;;;;;;5006128;28;114564;-79
2023/08/20 01:45:42;;;;;;;16.20;14.60;;;25.30;57.40;;;;;;5003929;28;115406;-79
2023/08/20 01:48:09;;;;;;;17.13;15.43;;;25.40;57.50;;;;;;5004426;28;114786;-79
2023/08/20 01:50:37;;;;;;;17.27;15.57;;;25.30;57.40;;;;;;5004104;28;114083;-79
2023/08/20 01:53:04;;;;;;;17.20;15.52;;;25.40;57.40;;;;;;5004053;28;114290;-79
2023/08/20 01:55:31;;;;;;;17.38;15.80;;;25.30;57.40;;;;;;5004997;28;114888;-80
2023/08/20 01:57:59;;;;;;;19.48;17.63;;;25.40;57.30;;;;;;5003370;28;116242;-78
2023/08/20 02:00:27;;;;;;;21.55;17.70;;;25.40;57.30;;;;;;5004344;28;114086;-79
2023/08/20 02:02:57;;;;;;;15.88;14.10;;;25.30;57.40;;;;;;5005647;28;114266;-77
2023/08/20 02:05:25;;;;;;;15.40;13.90;;;25.30;57.60;;;;;;5003490;28;114873;-78
2023/08/20 02:07:53;;;;;;;16.55;15.15;;;25.30;57.60;;;;;;5003990;28;114641;-78
2023/08/20 02:10:21;;;;;;;15.65;14.05;;;25.30;57.40;;;;;;5004361;28;114386;-79
2023/08/20 02:12:48;;;;;;;15.48;13.88;;;25.30;57.60;;;;;;5004226;28;114377;-78
2023/08/20 02:15:16;;;;;;;15.85;14.45;;;25.30;57.60;;;;;;4986555;28;115516;-78
2023/08/20 02:17:43;;;;;;;17.35;15.68;;;25.30;57.50;;;;;;5004444;28;114312;-78
2023/08/20 02:20:10;;;;;;;15.00;13.60;;;25.30;57.30;;;;;;5005097;28;114331;-78
2023/08/20 02:22:37;;;;;;;16.83;14.20;;;25.10;57.70;;;;;;4987583;28;114151;-78
2023/08/20 02:25:05;;;;;;;15.10;13.73;;;25.10;58.00;;;;;;4986516;28;114826;-78
2023/08/20 02:27:32;;;;;;;16.45;14.95;;;25.10;57.90;;;;;;5004316;28;114668;-79
2023/08/20 02:29:59;;;;;;;14.63;13.23;;;25.20;57.80;;;;;;5003885;28;114133;-78
2023/08/20 02:32:27;;;;;;;15.52;14.02;;;25.20;57.70;;;;;;5005468;28;114311;-78
2023/08/20 02:34:54;;;;;;;14.48;13.02;;;25.30;57.60;;;;;;5004131;28;115007;-78
2023/08/20 02:37:24;;;;;;;16.33;14.82;;;25.30;57.40;;;;;;5004276;28;115100;-78
2023/08/20 02:39:51;;;;;;;15.05;13.65;;;25.30;57.30;;;;;;5004353;28;114236;-78
2023/08/20 02:42:18;;;;;;;15.18;13.68;;;25.40;57.20;;;;;;5003492;28;114304;-78
2023/08/20 02:44:45;;;;;;;15.85;14.25;;;25.40;57.10;;;;;;5003937;28;114884;-78
2023/08/20 02:47:12;;;;;;;15.32;13.82;;;25.40;57.00;;;;;;5002894;28;114610;-78
2023/08/20 02:49:39;;;;;;;14.27;12.88;;;25.40;56.90;;;;;;5003651;28;114252;-79
2023/08/20 02:52:06;;;;;;;17.92;16.05;;;25.40;57.00;;;;;;5003796;28;114194;-78
2023/08/20 02:54:33;;;;;;;14.13;12.73;;;25.40;56.80;;;;;;5003071;28;114823;-77
2023/08/20 02:57:00;;;;;;;17.45;15.75;;;25.30;57.20;;;;;;5002717;28;114696;-79
2023/08/20 02:59:28;;;;;;;14.10;12.80;;;25.20;57.00;;;;;;5004539;28;114355;-78
2023/08/20 03:01:55;;;;;;;16.88;15.23;;;25.10;57.60;;;;;;5003370;28;114529;-79
2023/08/20 03:04:22;;;;;;;14.85;13.45;;;25.00;57.50;;;;;;5001392;28;114919;-78
2023/08/20 03:06:49;;;;;;;15.27;13.80;;;25.10;57.70;;;;;;5002705;28;114556;-78
2023/08/20 03:09:16;;;;;;;14.75;13.35;;;25.10;57.60;;;;;;5004304;28;113897;-78
2023/08/20 03:11:43;;;;;;;15.07;13.65;;;25.10;57.60;;;;;;5003274;28;114466;-78
2023/08/20 03:14:11;;;;;;;14.77;13.23;;;25.20;57.50;;;;;;5002460;28;114999;-78
2023/08/20 03:16:38;;;;;;;15.75;14.27;;;25.30;57.40;;;;;;5003364;28;114619;-78
2023/08/20 03:19:05;;;;;;;14.13;12.73;;;25.30;57.20;;;;;;5003229;28;114389;-78
2023/08/20 03:21:32;;;;;;;16.40;14.90;;;25.30;57.20;;;;;;4986770;28;114195;-78
2023/08/20 03:23:59;;;;;;;15.13;13.60;;;25.30;57.00;;;;;;5002184;28;117837;-79
2023/08/20 03:26:26;;;;;;;14.82;13.35;;;25.30;57.00;;;;;;5003452;28;114607;-78
2023/08/20 03:28:53;;;;;;;15.13;13.63;;;25.30;57.00;;;;;;5002542;28;114355;-78
2023/08/20 03:31:20;;;;;;;15.77;13.93;;;25.30;56.90;;;;;;4986491;28;114124;-78
2023/08/20 03:33:48;;;;;;;16.38;14.75;;;25.30;56.90;;;;;;5003492;28;115188;-78
2023/08/20 03:36:15;;;;;;;25.70;21.45;;;25.30;56.90;;;;;;5003117;28;114627;-78
2023/08/20 03:38:42;;;;;;;25.15;20.63;;;25.30;56.60;;;;;;5002805;28;114226;-79
2023/08/20 03:41:09;;;;;;;20.42;17.83;;;25.30;56.80;;;;;;5002399;28;114442;-78
2023/08/20 03:43:36;;;;;;;18.05;16.30;;;25.30;56.80;;;;;;4985676;28;114888;-79
2023/08/20 03:46:03;;;;;;;17.70;15.80;;;25.30;56.80;;;;;;5002161;28;114646;-78
2023/08/20 03:48:30;;;;;;;19.05;17.15;;;25.30;56.80;;;;;;5002792;28;114342;-79
2023/08/20 03:50:57;;;;;;;17.08;15.27;;;25.30;56.70;;;;;;5002916;28;114397;-78
2023/08/20 03:53:24;;;;;;;17.83;16.13;;;25.30;56.80;;;;;;5001926;28;114920;-78
2023/08/20 03:55:51;;;;;;;16.65;14.95;;;25.30;56.70;;;;;;5003995;28;114614;-78
2023/08/20 03:58:19;;;;;;;18.08;16.20;;;25.30;56.60;;;;;;5002507;28;114103;-78
2023/08/20 04:00:46;;;;;;;18.45;16.63;;;25.30;56.70;;;;;;4986295;28;114270;-78
2023/08/20 04:03:14;;;;;;;18.25;16.10;;;25.30;56.40;;;;;;5002779;28;116070;-78
2023/08/20 04:05:41;;;;;;;16.42;14.73;;;25.30;56.60;;;;;;5006701;28;114671;-79
2023/08/20 04:08:08;;;;;;;16.23;14.63;;;25.30;56.70;;;;;;5004190;28;114421;-79
2023/08/20 04:10:35;;;;;;;17.98;15.75;;;25.30;56.60;;;;;;5004348;28;114732;-78
2023/08/20 04:13:03;;;;;;;17.20;15.57;;;25.40;56.50;;;;;;5002171;28;115472;-78
2023/08/20 04:15:30;;;;;;;15.45;14.00;;;25.50;56.50;;;;;;5003188;28;114322;-78
2023/08/20 04:17:57;;;;;;;16.23;14.52;;;25.50;56.20;;;;;;5002819;28;114291;-78
2023/08/20 04:20:25;;;;;;;15.88;14.38;;;25.60;56.00;;;;;;5002280;28;114219;-79
2023/08/20 04:22:52;;;;;;;16.25;14.57;;;25.70;55.90;;;;;;5001772;28;114125;-78
2023/08/20 04:25:19;;;;;;;16.40;14.80;;;25.80;55.50;;;;;;5003190;28;115162;-78
2023/08/20 04:27:47;;;;;;;15.00;13.63;;;25.80;55.50;;;;;;5003280;28;114462;-79
2023/08/20 04:30:14;;;;;;;15.40;13.50;;;25.90;55.10;;;;;;5002587;28;114395;-79
2023/08/20 04:32:41;;;;;;;14.80;13.02;;;26.00;55.10;;;;;;5001485;28;115301;-78
2023/08/20 04:35:09;;;;;;;14.40;12.88;;;26.10;54.80;;;;;;5001760;28;115090;-78
2023/08/20 04:37:36;;;;;;;14.82;13.40;;;26.20;54.60;;;;;;5002008;28;114279;-78
2023/08/20 04:40:05;;;;;;;14.23;12.82;;;26.30;54.40;;;;;;4985340;28;114412;-78
2023/08/20 04:42:32;;;;;;;14.95;13.30;;;26.30;54.20;;;;;;5002129;28;115160;-79
2023/08/20 04:44:59;;;;;;;15.00;13.50;;;26.30;54.10;;;;;;4968473;28;117753;-79
2023/08/20 04:47:27;;;;;;;13.95;12.57;;;26.40;53.90;;;;;;4984909;28;114094;-79
2023/08/20 04:49:54;;;;;;;14.73;13.32;;;26.50;53.70;;;;;;5001986;28;114390;-78
2023/08/20 04:52:21;;;;;;;14.18;12.88;;;26.60;53.40;;;;;;5001518;28;114947;-79
2023/08/20 04:54:49;;;;;;;13.65;12.27;;;26.60;53.30;;;;;;4985102;28;114879;-78
2023/08/20 04:57:17;;;;;;;14.20;12.90;;;26.60;53.30;;;;;;4985249;28;114325;-79
2023/08/20 04:59:45;;;;;;;13.80;12.40;;;26.70;53.20;;;;;;5001839;28;114560;-78
2023/08/20 05:02:12;;;;;;;13.70;12.40;;;26.70;52.80;;;;;;5002498;28;115010;-79
2023/08/20 05:04:45;;;;;;;13.63;12.30;;;26.70;52.80;;;;;;4970309;28;114880;-79
2023/08/20 05:07:13;;;;;;;14.18;12.75;;;26.80;52.90;;;;;;4985266;28;114353;-80
2023/08/20 05:09:40;;;;;;;13.90;12.50;;;26.80;52.70;;;;;;5001768;28;114443;-79
2023/08/20 05:12:07;;;;;;;14.40;12.95;;;26.80;52.80;;;;;;5000849;28;114911;-78
2023/08/20 05:14:34;;;;;;;14.02;12.80;;;26.80;52.80;;;;;;4984295;28;114768;-79
2023/08/20 05:17:02;;;;;;;13.98;12.60;;;26.60;52.90;;;;;;5001479;28;114471;-79
2023/08/20 05:19:29;;;;;;;14.25;12.88;;;26.60;53.20;;;;;;5001640;28;114419;-79
2023/08/20 05:21:58;;;;;;;14.80;12.82;;;26.70;53.10;;;;;;4984415;28;114948;-78
2023/08/20 05:24:29;;;;;;;15.75;14.07;;;26.80;53.00;;;;;;4984423;28;116919;-78
2023/08/20 05:27:07;;;;;;;14.98;12.98;;;26.80;52.80;;;;;;4985387;28;114394;-77
2023/08/20 05:29:34;;;;;;;17.90;14.25;;;26.90;52.80;;;;;;4988290;28;114410;-79
2023/08/20 05:32:02;;;;;;;16.33;14.63;;;26.80;52.70;;;;;;4971039;28;114918;-79
2023/08/20 05:34:29;;;;;;;15.18;13.68;;;26.80;52.90;;;;;;5005562;28;115157;-79
2023/08/20 05:36:56;;;;;;;15.45;13.93;;;26.80;52.80;;;;;;5004929;28;114414;-79
2023/08/20 05:39:25;;;;;;;14.40;12.85;;;26.80;52.90;;;;;;5004533;28;114459;-79
2023/08/20 05:41:53;;;;;;;16.70;14.90;;;26.80;52.80;;;;;;5004730;28;114909;-79
2023/08/20 05:44:22;;;;;;;14.95;13.35;;;26.80;53.10;;;;;;5003372;28;115097;-79
2023/08/20 05:46:49;;;;;;;13.95;12.00;;;26.80;53.10;;;;;;5004570;28;114993;-79
2023/08/20 05:49:18;;;;;;;14.68;13.23;;;26.80;52.90;;;;;;5004970;28;114362;-79
2023/08/20 05:51:45;;;;;;;14.25;12.05;;;27.00;52.80;;;;;;5003763;28;115513;-80
2023/08/20 05:54:12;;;;;;;13.07;11.77;;;27.10;52.40;;;;;;5004939;28;115426;-79
2023/08/20 05:56:39;;;;;;;18.52;13.30;;;27.30;52.40;;;;;;5005045;28;114240;-79
2023/08/20 05:59:06;;;;;;;15.23;13.45;;;27.30;52.50;;;;;;5004032;28;114319;-79
2023/08/20 06:01:33;;;;;;;14.40;12.23;;;27.40;52.60;;;;;;4986920;28;114784;-79
2023/08/20 06:04:01;;;;;;;14.13;12.63;;;27.50;52.20;;;;;;4969994;28;117158;-80
2023/08/20 06:06:28;;;;;;;13.15;11.85;;;27.60;52.10;;;;;;5004098;28;114456;-79
2023/08/20 06:08:55;;;;;;;13.88;12.55;;;27.80;51.70;;;;;;5005557;28;114231;-79
2023/08/20 06:11:35;;;;;;;14.00;12.63;;;27.80;51.70;;;;;;5004599;28;114903;-78
2023/08/20 06:14:02;;;;;;;13.82;12.32;;;28.00;51.60;;;;;;5004865;28;114525;-78
2023/08/20 06:16:30;;;;;;;12.77;11.50;;;28.10;51.40;;;;;;5004981;28;114658;-79
2023/08/20 06:18:58;;;;;;;12.73;11.57;;;28.20;50.60;;;;;;5005224;28;114366;-79
2023/08/20 06:21:28;;;;;;;12.27;10.95;;;28.30;50.40;;;;;;5004066;28;114981;-78
2023/08/20 06:23:55;;;;;;;12.77;11.68;;;28.30;50.80;;;;;;5004545;28;114564;-80
2023/08/20 06:26:22;;;;;;;12.40;11.23;;;28.40;50.30;;;;;;5004084;28;114379;-79
2023/08/20 06:28:49;;;;;;;11.65;10.57;;;28.60;49.80;;;;;;5004651;28;114731;-79
2023/08/20 06:31:16;;;;;;;12.32;11.13;;;28.70;50.00;;;;;;5004323;28;114853;-80
2023/08/20 06:33:43;;;;;;;12.00;10.75;;;28.70;49.80;;;;;;5004235;28;114640;-79
2023/08/20 06:36:10;;;;;;;12.38;11.10;;;28.80;49.90;;;;;;5005046;28;114219;-78
2023/08/20 06:38:37;;;;;;;11.52;10.40;;;28.90;49.60;;;;;;5004602;28;114106;-80
2023/08/20 06:41:04;;;;;;;12.43;10.98;;;29.10;49.20;;;;;;5004411;28;114761;-80
2023/08/20 06:43:31;;;;;;;11.77;10.52;;;29.10;49.20;;;;;;5003541;28;114554;-80
2023/08/20 06:45:58;;;;;;;11.35;10.23;;;29.30;48.70;;;;;;5004622;28;113926;-80
2023/08/20 06:48:26;;;;;;;11.50;10.45;;;29.20;48.50;;;;;;5005186;28;114053;-80
2023/08/20 06:50:53;;;;;;;12.80;11.48;;;29.30;48.60;;;;;;5003481;28;114849;-80
2023/08/20 06:53:21;;;;;;;11.73;10.63;;;29.30;48.40;;;;;;5003705;28;114740;-79
2023/08/20 06:55:48;;;;;;;12.70;11.45;;;29.40;49.10;;;;;;5005002;28;114258;-81
2023/08/20 06:58:15;;;;;;;12.65;11.25;;;29.50;48.60;;;;;;5005154;28;114957;-78
2023/08/20 07:00:42;;;;;;;12.23;11.00;;;29.50;48.60;;;;;;5003170;28;114967;-79
2023/08/20 07:03:09;;;;;;;14.07;11.25;;;29.60;48.60;;;;;;5003258;28;114576;-80
2023/08/20 07:05:39;;;;;;;14.13;11.07;;;29.70;48.80;;;;;;5004071;28;114348;-79
2023/08/20 07:08:06;;;;;;;13.90;11.27;;;29.70;48.70;;;;;;4988020;28;114111;-80
2023/08/20 07:10:33;;;;;;;14.23;11.70;;;29.80;48.60;;;;;;5003552;28;114955;-80
2023/08/20 07:13:00;;;;;;;13.07;11.70;;;29.80;48.50;;;;;;5002479;28;117047;-80
2023/08/20 07:15:27;;;;;;;16.05;12.15;;;29.80;48.30;;;;;;4986389;28;115507;-80
2023/08/20 07:17:54;;;;;;;15.40;12.10;;;29.90;48.50;;;;;;4986733;28;114570;-79
2023/08/20 07:20:21;;;;;;;21.45;13.32;;;29.90;48.10;;;;;;5002165;28;115447;-80
2023/08/20 07:22:48;;;;;;;17.17;12.80;;;30.00;48.20;;;;;;4969781;28;114615;-80
2023/08/20 07:25:15;;;;;;;13.75;12.00;;;30.10;47.70;;;;;;5004135;28;114167;-79
2023/08/20 07:27:44;;;;;;;16.88;12.60;;;30.10;47.80;;;;;;5003003;28;114276;-80
2023/08/20 07:30:11;;;;;;;15.32;12.80;;;30.20;47.30;;;;;;5003232;28;114881;-80
2023/08/20 07:32:38;;;;;;;13.32;11.70;;;30.20;47.20;;;;;;5003385;28;114714;-79
2023/08/20 07:35:06;;;;;;;17.27;13.07;;;30.20;47.40;;;;;;5002102;28;114467;-80
2023/08/20 07:37:37;;;;;;;17.25;12.63;;;30.10;47.40;;;;;;5004178;28;114027;-80
2023/08/20 07:40:05;;;;;;;15.43;12.07;;;30.20;47.50;;;;;;5001678;28;114414;-79
2023/08/20 07:42:32;;;;;;;14.60;12.00;;;30.10;47.40;;;;;;5002274;28;114668;-79
2023/08/20 07:44:59;;;;;;;14.38;11.25;;;30.20;47.90;;;;;;5004253;28;114078;-80
2023/08/20 07:47:28;;;;;;;12.30;11.02;;;30.20;47.20;;;;;;5003059;28;114252;-80
2023/08/20 07:49:56;;;;;;;15.07;11.13;;;30.30;47.10;;;;;;5001898;28;114966;-79
2023/08/20 07:52:23;;;;;;;10.80;9.77;;;30.30;46.60;;;;;;5002304;28;114655;-81
2023/08/20 07:54:50;;;;;;;10.43;9.43;;;30.30;46.20;;;;;;5003878;28;114080;-80
2023/08/20 07:57:17;;;;;;;11.27;10.10;;;30.40;45.90;;;;;;5003990;28;114307;-81
2023/08/20 07:59:44;;;;;;;11.23;10.07;;;30.40;45.90;;;;;;5002763;28;115046;-79
2023/08/20 08:02:11;;;;;;;11.20;10.13;;;30.50;45.80;;;;;;5001703;28;115088;-81
2023/08/20 08:04:41;;;;;;;11.00;9.90;;;30.50;46.10;;;;;;5003696;28;114397;-80
2023/08/20 08:07:11;;;;;;;11.27;10.27;;;30.60;45.80;;;;;;5002877;28;114153;-79
2023/08/20 08:09:42;;;;;;;13.43;10.00;;;30.60;46.10;;;;;;5001706;28;114932;-80
2023/08/20 08:12:09;;;;;;;11.50;10.30;;;30.70;44.90;;;;;;5002677;28;114595;-79
2023/08/20 08:14:37;;;;;;;11.00;10.10;;;30.70;43.90;;;;;;4985565;28;114202;-80
2023/08/20 08:17:07;;;;;;;10.85;9.75;;;30.80;44.20;;;;;;5002478;28;114578;-79
2023/08/20 08:19:34;;;;;;;12.35;9.52;;;30.80;44.90;;;;;;5002516;28;117258;-80
2023/08/20 08:22:02;;;;;;;10.25;9.27;;;30.80;45.20;;;;;;5002062;28;114569;-81
2023/08/20 08:24:29;;;;;;;10.73;9.63;;;30.90;45.10;;;;;;5002723;28;114166;-80
2023/08/20 08:26:56;;;;;;;12.52;9.57;;;31.00;44.70;;;;;;5003380;28;114309;-80
2023/08/20 08:29:23;;;;;;;10.82;9.90;;;31.10;44.70;;;;;;5001135;28;115999;-80
2023/08/20 08:31:51;;;;;;;11.20;10.10;;;31.10;44.90;;;;;;4985137;28;114904;-80
2023/08/20 08:34:18;;;;;;;11.02;10.02;;;31.10;44.80;;;;;;4969001;28;114274;-80
2023/08/20 08:36:45;;;;;;;11.05;9.85;;;31.10;45.50;;;;;;4985299;28;114350;-80
2023/08/20 08:39:12;;;;;;;11.35;10.40;;;31.10;45.50;;;;;;5002124;28;115017;-79
2023/08/20 08:41:42;;;;;;;10.90;9.77;;;31.10;45.60;;;;;;5001182;28;114685;-79
2023/08/20 08:44:10;;;;;;;10.95;9.82;;;31.20;45.60;;;;;;5001572;28;114453;-80
2023/08/20 08:46:38;;;;;;;11.02;9.93;;;31.20;45.30;;;;;;4985485;28;114347;-80
2023/08/20 08:49:07;;;;;;;11.65;10.65;;;31.20;45.10;;;;;;4984120;28;116402;-80
2023/08/20 08:51:35;;;;;;;12.15;10.98;;;31.30;44.70;;;;;;5002456;28;114998;-80
2023/08/20 08:54:02;;;;;;;11.15;10.15;;;31.40;44.90;;;;;;4969127;28;114279;-79
2023/08/20 08:56:29;;;;;;;10.75;9.73;;;31.40;44.60;;;;;;5002006;28;114448;-79
2023/08/20 08:58:56;;;;;;;11.27;10.35;;;31.40;45.00;;;;;;4984077;28;118556;-79
2023/08/20 09:01:23;;;;;;;11.52;10.43;;;31.50;44.30;;;;;;5002315;28;114638;-79
2023/08/20 09:03:50;;;;;;;10.52;9.43;;;31.50;44.20;;;;;;4989230;28;114464;-79
2023/08/20 09:06:17;;;;;;;11.38;9.95;;;31.40;44.10;;;;;;5007639;28;114167;-80
2023/08/20 09:08:45;;;;;;;11.10;10.18;;;31.40;44.00;;;;;;4971639;28;116816;-80
2023/08/20 09:11:12;;;;;;;11.35;10.25;;;31.40;44.40;;;;;;5005707;28;114623;-79
2023/08/20 09:13:41;;;;;;;11.35;10.07;;;31.40;44.10;;;;;;5004864;28;114414;-79
2023/08/20 09:16:10;;;;;;;11.25;10.23;;;31.40;43.50;;;;;;5004051;28;114371;-79
2023/08/20 09:18:41;;;;;;;12.50;11.30;;;31.50;43.30;;;;;;5005476;28;115243;-80
2023/08/20 09:21:10;;;;;;;11.83;10.07;;;31.60;43.60;;;;;;5005528;28;115079;-80
2023/08/20 09:23:39;;;;;;;11.70;10.63;;;31.60;43.70;;;;;;4971919;28;114321;-80
2023/08/20 09:26:07;;;;;;;11.35;10.35;;;31.60;43.90;;;;;;5004791;28;114621;-79
2023/08/20 09:28:54;;;;;;;10.82;9.82;;;31.70;43.20;;;;;;5004691;28;114943;-80
2023/08/20 09:31:22;;;;;;;12.00;10.90;;;31.70;43.40;;;;;;5003939;28;115625;-80
2023/08/20 09:33:53;;;;;;;12.00;9.85;;;31.70;43.40;;;;;;4987832;28;114520;-80
2023/08/20 09:36:30;;;;;;;11.60;10.40;;;31.70;43.40;;;;;;5005897;28;114199;-81
2023/08/20 09:38:57;;;;;;;12.00;10.82;;;31.70;42.90;;;;;;4986925;28;115069;-80
2023/08/20 09:41:24;;;;;;;12.50;11.38;;;31.60;43.20;;;;;;5003452;28;114779;-79
2023/08/20 09:43:57;;;;;;;12.27;11.15;;;31.60;43.50;;;;;;5006166;28;114077;-80
2023/08/20 09:46:25;;;;;;;13.45;12.15;;;31.70;42.90;;;;;;5005806;28;114595;-81
2023/08/20 09:48:58;;;;;;;12.38;11.27;;;31.70;43.90;;;;;;4987932;28;114891;-80
2023/08/20 09:51:27;;;;;;;12.50;11.23;;;31.70;43.90;;;;;;5003965;28;114947;-79
2023/08/20 09:54:17;;;;;;;12.52;11.40;;;31.80;43.40;;;;;;5005593;28;114465;-80
2023/08/20 09:56:44;;;;;;;12.30;11.20;;;31.70;43.50;;;;;;5001075;28;114371;-79
2023/08/20 09:59:12;;;;;;;10.90;9.90;;;31.70;43.30;;;;;;4987960;28;115686;-79
2023/08/20 10:01:41;;;;;;;12.50;11.32;;;31.80;42.60;;;;;;5003883;28;114619;-79
2023/08/20 10:04:09;;;;;;;12.30;11.05;;;31.70;42.60;;;;;;5004625;28;114580;-80
2023/08/20 10:06:37;;;;;;;13.65;12.32;;;31.80;42.50;;;;;;5005892;28;114429;-80
2023/08/20 10:09:04;;;;;;;13.32;11.90;;;31.80;43.40;;;;;;5003018;28;117593;-78
2023/08/20 10:11:31;;;;;;;11.93;10.77;;;31.80;43.80;;;;;;4987998;28;118148;-80
2023/08/20 10:13:58;;;;;;;11.25;10.15;;;31.90;42.80;;;;;;5006076;28;114028;-80
2023/08/20 10:16:27;;;;;;;12.48;11.00;;;31.80;42.70;;;;;;5005422;28;114315;-79
2023/08/20 10:18:59;;;;;;;10.95;9.80;;;31.60;42.40;;;;;;4970458;28;117925;-79
2023/08/20 10:21:27;;;;;;;10.98;10.05;;;31.60;42.10;;;;;;5004927;28;114875;-80
2023/08/20 10:23:54;;;;;;;11.23;10.32;;;31.70;41.90;;;;;;5005496;28;114202;-79
2023/08/20 10:26:24;;;;;;;12.45;10.88;;;31.80;42.00;;;;;;5005684;28;114028;-80
2023/08/20 10:28:51;;;;;;;12.15;10.95;;;31.80;42.20;;;;;;5002363;28;115308;-81
2023/08/20 10:31:19;;;;;;;11.80;10.05;;;31.80;41.50;;;;;;5003432;28;114648;-79
2023/08/20 10:33:46;;;;;;;12.88;10.60;;;31.80;41.60;;;;;;5005761;28;114323;-80
2023/08/20 10:36:22;;;;;;;9.50;8.57;;;31.90;41.50;;;;;;5006061;28;114273;-81
2023/08/20 10:38:55;;;;;;;10.38;9.02;;;31.90;40.50;;;;;;5003193;28;114920;-78
2023/08/20 10:41:26;;;;;;;12.05;9.65;;;31.90;40.40;;;;;;4969776;28;118121;-81
2023/08/20 10:43:56;;;;;;;9.18;8.38;;;31.80;40.40;;;;;;5005308;28;114398;-79
2023/08/20 10:46:25;;;;;;;10.02;9.02;;;31.70;40.30;;;;;;5003853;28;114301;-80
2023/08/20 10:48:59;;;;;;;9.80;8.77;;;31.60;40.00;;;;;;5002762;28;115311;-81
2023/08/20 10:51:31;;;;;;;10.27;8.65;;;31.60;39.30;;;;;;4952949;28;119422;-81
2023/08/20 10:54:01;;;;;;;10.60;8.50;;;31.60;39.50;;;;;;4987331;28;114304;-80
2023/08/20 10:56:47;;;;;;;10.20;9.30;;;31.60;39.80;;;;;;5005020;28;114232;-80
2023/08/20 10:59:25;;;;;;;8.45;7.65;;;31.90;40.40;;;;;;5002740;28;114828;-78
2023/08/20 11:01:54;;;;;;;9.00;7.45;;;31.90;38.80;;;;;;5002515;28;116689;-78
2023/08/20 11:04:34;;;;;;;8.43;7.60;;;31.90;38.40;;;;;;5004376;28;114194;-80
2023/08/20 11:07:01;;;;;;;7.60;6.85;;;31.80;38.00;;;;;;5004693;28;114177;-79
2023/08/20 11:09:30;;;;;;;8.13;7.32;;;31.70;37.80;;;;;;4986093;28;115450;-80
2023/08/20 11:11:57;;;;;;;9.02;7.03;;;31.80;38.20;;;;;;5003953;28;115378;-80
2023/08/20 11:14:24;;;;;;;9.45;8.55;;;31.80;38.10;;;;;;5004585;28;114377;-80
2023/08/20 11:16:55;;;;;;;9.55;8.32;;;31.80;39.00;;;;;;4970472;28;114391;-79
2023/08/20 11:19:23;;;;;;;8.70;7.82;;;31.90;39.50;;;;;;5002904;28;114984;-80
2023/08/20 11:21:50;;;;;;;8.63;7.82;;;31.90;39.40;;;;;;5004506;28;114712;-80
2023/08/20 11:24:19;;;;;;;8.15;7.35;;;31.90;38.60;;;;;;5004097;28;114130;-79
2023/08/20 11:26:46;;;;;;;9.45;7.50;;;31.90;38.40;;;;;;4986968;28;114221;-79
2023/08/20 11:29:19;;;;;;;8.02;7.22;;;31.90;38.10;;;;;;5002594;28;115442;-80
2023/08/20 11:31:48;;;;;;;8.52;7.63;;;31.90;38.10;;;;;;5002485;28;114724;-79
2023/08/20 11:34:15;;;;;;;8.68;7.85;;;31.80;38.10;;;;;;5003244;28;114225;-79
2023/08/20 11:36:42;;;;;;;7.80;7.10;;;31.80;37.90;;;;;;4970637;28;114398;-80
2023/08/20 11:39:09;;;;;;;8.68;7.88;;;31.80;37.80;;;;;;5001980;28;114899;-79
2023/08/20 11:41:40;;;;;;;8.35;7.38;;;31.90;38.10;;;;;;4984714;28;115687;-79
2023/08/20 11:44:10;;;;;;;7.95;7.25;;;31.90;37.00;;;;;;4969506;28;114303;-79
2023/08/20 11:46:44;;;;;;;7.95;7.25;;;31.90;36.60;;;;;;5002853;28;114628;-79
2023/08/20 11:49:11;;;;;;;9.07;7.22;;;31.80;37.20;;;;;;5003209;28;115023;-80
2023/08/20 11:51:39;;;;;;;7.70;6.85;;;31.80;37.00;;;;;;5002945;28;114689;-79
2023/08/20 11:54:11;;;;;;;8.30;7.50;;;31.90;37.10;;;;;;5003732;28;114294;-80
2023/08/20 11:56:49;;;;;;;8.27;7.57;;;32.00;36.90;;;;;;5002478;28;114358;-79
2023/08/20 11:59:20;;;;;;;7.97;7.22;;;32.10;37.30;;;;;;5001935;28;115012;-79
2023/08/20 12:02:08;;;;;;;8.88;7.53;;;32.10;37.10;;;;;;5001935;28;115051;-79
2023/08/20 12:04:35;;;;;;;8.80;7.90;;;32.30;37.40;;;;;;5003233;28;114166;-78
2023/08/20 12:07:04;;;;;;;8.63;7.78;;;32.10;37.40;;;;;;5004282;28;114150;-79
2023/08/20 12:09:32;;;;;;;9.20;8.40;;;32.20;37.40;;;;;;5001285;28;116838;-79
2023/08/20 12:11:59;;;;;;;8.73;7.93;;;32.30;37.00;;;;;;5002896;28;114603;-80
2023/08/20 12:14:27;;;;;;;10.07;8.13;;;32.20;36.70;;;;;;5004035;28;114445;-79
2023/08/20 12:17:03;;;;;;;8.57;7.78;;;32.20;36.50;;;;;;4987613;28;114114;-79
2023/08/20 12:19:30;;;;;;;10.38;7.90;;;32.10;36.70;;;;;;5003466;28;115495;-80
2023/08/20 12:21:57;;;;;;;10.23;8.27;;;32.10;37.20;;;;;;5002993;28;114882;-79
2023/08/20 12:24:25;;;;;;;8.50;7.70;;;32.10;37.40;;;;;;5003493;28;114235;-80
2023/08/20 12:26:53;;;;;;;8.82;8.00;;;32.10;37.10;;;;;;5003857;28;114320;-81